Time;durP1;ratioP1;P1;durP2;ratioP2;P2;SDS_P1;SDS_P2;PMS_P1;PMS_P2;Temp;Humidity;BMP_temperature;BMP_pressure;BME280_temperature;BME280_humidity;BME280_pressure;Samples;Min_cycle;Max_cycle;Signal;HPM_P1;HPM_P2
2024/01/08 00:01:26;;;;;;;3.47;2.70;;;3.00;99.90;;;;;;5012334;28;20427;-68
2024/01/08 00:03:52;;;;;;;3.90;3.00;;;3.10;99.90;;;;;;5010708;28;20204;-68
2024/01/08 00:06:18;;;;;;;4.90;3.70;;;3.10;99.90;;;;;;5013601;28;20185;-68
2024/01/08 00:08:44;;;;;;;4.80;3.30;;;3.00;99.90;;;;;;5017412;28;20561;-68
2024/01/08 00:11:09;;;;;;;6.67;2.97;;;3.10;99.90;;;;;;5018180;28;20192;-68
2024/01/08 00:13:35;;;;;;;4.40;3.50;;;3.00;99.90;;;;;;5015210;28;20438;-68
2024/01/08 00:16:01;;;;;;;3.50;2.97;;;3.00;99.90;;;;;;5014712;28;20194;-67
2024/01/08 00:18:29;;;;;;;4.47;3.37;;;2.90;99.90;;;;;;5013351;28;20285;-67
2024/01/08 00:20:55;;;;;;;6.23;4.00;;;3.00;99.90;;;;;;5017053;28;20591;-67
2024/01/08 00:23:21;;;;;;;4.47;3.33;;;3.00;99.90;;;;;;5012705;28;20941;-67
2024/01/08 00:25:48;;;;;;;4.47;3.67;;;3.00;99.90;;;;;;5014840;28;20435;-67
2024/01/08 00:28:14;;;;;;;4.37;3.53;;;3.00;99.90;;;;;;5010664;28;20577;-67
2024/01/08 00:30:39;;;;;;;4.70;4.00;;;3.00;99.90;;;;;;5008983;28;20541;-67
2024/01/08 00:33:05;;;;;;;3.77;3.10;;;3.00;99.90;;;;;;5016350;28;20627;-67
2024/01/08 00:35:30;;;;;;;5.43;3.53;;;3.10;99.90;;;;;;5006877;28;20188;-67
2024/01/08 00:37:56;;;;;;;5.33;4.27;;;3.10;99.90;;;;;;5011067;28;20205;-67
2024/01/08 00:40:22;;;;;;;6.60;3.90;;;3.00;99.90;;;;;;5014229;28;20189;-67
2024/01/08 00:42:47;;;;;;;5.57;3.83;;;3.00;99.90;;;;;;5012259;28;20264;-67
2024/01/08 00:45:13;;;;;;;5.30;4.17;;;3.10;99.90;;;;;;5015123;28;20587;-67
2024/01/08 00:47:40;;;;;;;5.03;3.40;;;3.10;99.90;;;;;;5014258;28;20251;-67
2024/01/08 00:50:09;;;;;;;4.00;3.50;;;3.10;99.90;;;;;;5012484;28;20187;-67
2024/01/08 00:52:35;;;;;;;5.70;4.00;;;3.10;99.90;;;;;;5013293;28;20439;-67
2024/01/08 00:55:04;;;;;;;7.70;6.47;;;3.10;99.90;;;;;;5014260;28;20490;-67
2024/01/08 00:57:30;;;;;;;7.20;3.70;;;3.10;99.90;;;;;;5012254;28;20211;-67
2024/01/08 00:59:56;;;;;;;4.37;3.60;;;3.10;99.90;;;;;;5007505;28;20435;-67
2024/01/08 01:02:21;;;;;;;4.40;4.00;;;3.00;99.90;;;;;;5010515;28;20482;-67
2024/01/08 01:04:47;;;;;;;4.40;3.60;;;3.10;99.90;;;;;;5014424;28;20207;-67
2024/01/08 01:07:12;;;;;;;5.43;4.10;;;3.10;99.90;;;;;;5013274;28;20255;-67
2024/01/08 01:09:38;;;;;;;4.97;3.90;;;3.00;99.90;;;;;;5009670;28;20185;-67
2024/01/08 01:12:04;;;;;;;4.70;3.70;;;3.00;99.90;;;;;;5015432;28;20180;-67
2024/01/08 01:14:30;;;;;;;4.40;3.80;;;3.00;99.90;;;;;;5013139;28;20208;-67
2024/01/08 01:16:55;;;;;;;4.87;3.50;;;3.00;99.90;;;;;;5016604;28;20886;-68
2024/01/08 01:19:21;;;;;;;4.30;3.90;;;3.00;99.90;;;;;;5017763;28;20248;-67
2024/01/08 01:21:46;;;;;;;6.60;3.50;;;3.00;99.90;;;;;;5015352;28;20623;-67
2024/01/08 01:24:12;;;;;;;4.27;3.57;;;3.00;99.90;;;;;;5016872;28;20678;-67
2024/01/08 01:26:37;;;;;;;4.67;4.10;;;3.00;99.90;;;;;;5013928;28;20186;-67
2024/01/08 01:29:03;;;;;;;5.37;4.13;;;3.00;99.90;;;;;;5012377;28;20249;-67
2024/01/08 01:31:30;;;;;;;4.23;3.70;;;3.00;99.90;;;;;;5011121;28;20172;-67
2024/01/08 01:33:56;;;;;;;5.17;3.70;;;3.00;99.90;;;;;;5017310;28;20197;-67
2024/01/08 01:36:22;;;;;;;5.03;3.67;;;3.10;99.90;;;;;;5019828;28;20859;-67
2024/01/08 01:38:47;;;;;;;4.30;3.90;;;3.10;99.90;;;;;;5014005;28;20612;-67
2024/01/08 01:41:13;;;;;;;5.37;3.80;;;3.00;99.90;;;;;;5015974;28;20426;-67
2024/01/08 01:43:38;;;;;;;4.83;4.17;;;3.00;99.90;;;;;;5017644;28;20605;-67
2024/01/08 01:46:08;;;;;;;5.17;3.63;;;3.10;99.90;;;;;;5013197;28;20194;-67
2024/01/08 01:48:34;;;;;;;4.40;3.63;;;3.10;99.90;;;;;;5014289;28;20236;-67
2024/01/08 01:51:02;;;;;;;4.60;3.57;;;3.10;99.90;;;;;;5015883;28;20522;-67
2024/01/08 01:53:28;;;;;;;4.90;4.07;;;3.10;99.90;;;;;;5015720;28;21138;-67
2024/01/08 01:55:54;;;;;;;5.90;4.03;;;3.10;99.90;;;;;;5019118;28;20527;-68
2024/01/08 01:58:21;;;;;;;5.27;4.20;;;3.10;99.90;;;;;;5019655;28;20459;-68
2024/01/08 02:00:47;;;;;;;4.40;3.33;;;3.10;99.90;;;;;;5015166;28;20444;-68
2024/01/08 02:03:12;;;;;;;6.03;3.80;;;3.10;99.90;;;;;;5016958;28;20439;-67
2024/01/08 02:05:38;;;;;;;4.40;3.90;;;3.10;99.90;;;;;;5023889;28;20756;-67
2024/01/08 02:08:05;;;;;;;4.97;3.43;;;3.10;99.90;;;;;;5017651;28;20612;-67
2024/01/08 02:10:30;;;;;;;4.40;3.80;;;3.10;99.90;;;;;;5014162;28;20427;-67
2024/01/08 02:12:57;;;;;;;5.97;3.90;;;3.20;99.90;;;;;;5015982;28;20506;-67
2024/01/08 02:15:22;;;;;;;5.40;3.60;;;3.10;99.90;;;;;;5011039;28;20861;-67
2024/01/08 02:17:48;;;;;;;4.43;3.70;;;3.10;99.90;;;;;;5012066;28;20557;-68
2024/01/08 02:20:14;;;;;;;5.50;3.67;;;3.20;99.90;;;;;;5014074;28;20204;-67
2024/01/08 02:22:41;;;;;;;5.20;3.83;;;3.20;99.90;;;;;;5012263;28;20176;-67
2024/01/08 02:25:11;;;;;;;5.00;3.87;;;3.20;99.90;;;;;;5012949;28;20208;-67
2024/01/08 02:27:36;;;;;;;4.57;3.70;;;3.20;99.90;;;;;;5016032;28;20430;-67
2024/01/08 02:30:21;;;;;;;4.97;4.30;;;3.20;99.90;;;;;;5010928;28;20905;-67
2024/01/08 02:32:47;;;;;;;5.30;3.80;;;3.20;99.90;;;;;;5008418;28;20193;-67
2024/01/08 02:35:12;;;;;;;5.63;4.10;;;3.20;99.90;;;;;;5018627;28;20421;-67
2024/01/08 02:37:38;;;;;;;4.60;3.80;;;3.20;99.90;;;;;;5017873;28;20196;-67
2024/01/08 02:40:04;;;;;;;5.57;4.40;;;3.20;99.90;;;;;;5017032;28;20211;-67
2024/01/08 02:42:30;;;;;;;4.50;3.70;;;3.20;99.90;;;;;;5013562;28;20185;-67
2024/01/08 02:44:56;;;;;;;4.40;3.33;;;3.20;99.90;;;;;;5013660;28;20471;-67
2024/01/08 02:47:21;;;;;;;5.73;3.70;;;3.20;99.90;;;;;;5009756;28;20199;-67
2024/01/08 02:49:47;;;;;;;4.03;3.50;;;3.20;99.90;;;;;;5012780;28;20420;-67
2024/01/08 02:52:12;;;;;;;4.73;3.90;;;3.20;99.90;;;;;;5014728;28;20181;-67
2024/01/08 02:54:38;;;;;;;4.47;3.50;;;3.30;99.90;;;;;;5012872;28;20304;-67
2024/01/08 02:57:03;;;;;;;4.83;3.27;;;3.30;99.90;;;;;;5015254;28;20200;-67
2024/01/08 02:59:29;;;;;;;5.40;4.03;;;3.20;99.90;;;;;;5015891;28;20239;-67
2024/01/08 03:01:55;;;;;;;4.40;3.90;;;3.20;99.90;;;;;;5013267;28;20876;-67
2024/01/08 03:04:20;;;;;;;6.20;3.87;;;3.20;99.90;;;;;;5013421;28;20215;-67
2024/01/08 03:06:46;;;;;;;6.47;3.63;;;3.30;99.90;;;;;;5014342;28;20176;-68
2024/01/08 03:09:11;;;;;;;4.57;3.50;;;3.30;99.90;;;;;;4972012;28;1109023;-67
2024/01/08 03:11:37;;;;;;;4.73;3.90;;;3.30;99.90;;;;;;5021013;28;20186;-67
2024/01/08 03:14:02;;;;;;;7.70;3.77;;;3.20;99.90;;;;;;5014992;28;20293;-68
2024/01/08 03:16:28;;;;;;;5.00;3.30;;;3.20;99.90;;;;;;5017089;28;20607;-68
2024/01/08 03:18:53;;;;;;;6.30;3.67;;;3.20;99.90;;;;;;5015180;28;20200;-67
2024/01/08 03:21:19;;;;;;;4.57;3.33;;;3.20;99.90;;;;;;5012733;28;20198;-67
2024/01/08 03:23:45;;;;;;;6.27;4.23;;;3.20;99.90;;;;;;5019728;28;20239;-67
2024/01/08 03:26:10;;;;;;;4.90;3.53;;;3.30;99.90;;;;;;5020191;28;20215;-67
2024/01/08 03:28:36;;;;;;;4.20;3.40;;;3.30;99.90;;;;;;5020228;28;20599;-67
2024/01/08 03:31:02;;;;;;;4.40;3.57;;;3.30;99.90;;;;;;5016654;28;20193;-67
2024/01/08 03:33:30;;;;;;;4.90;3.47;;;3.20;99.90;;;;;;5011054;28;20215;-68
2024/01/08 03:35:55;;;;;;;4.67;3.53;;;3.20;99.90;;;;;;5014935;28;20766;-67
2024/01/08 03:38:21;;;;;;;3.53;2.80;;;3.20;99.90;;;;;;5010587;28;20581;-67
2024/01/08 03:40:47;;;;;;;5.33;3.57;;;3.20;99.90;;;;;;5018960;28;20264;-67
2024/01/08 03:43:12;;;;;;;3.27;2.90;;;3.20;99.90;;;;;;5013938;28;20213;-67
2024/01/08 03:45:38;;;;;;;3.90;2.90;;;3.20;99.90;;;;;;5014165;28;20527;-67
2024/01/08 03:48:04;;;;;;;7.07;3.20;;;3.20;99.90;;;;;;5015587;28;20204;-67
2024/01/08 03:50:29;;;;;;;3.67;2.90;;;3.20;99.90;;;;;;5020572;28;20189;-67
2024/01/08 03:52:55;;;;;;;10.10;3.10;;;3.20;99.90;;;;;;5016648;28;20527;-67
2024/01/08 03:55:20;;;;;;;5.47;3.00;;;3.20;99.90;;;;;;5014781;28;20270;-67
2024/01/08 03:57:46;;;;;;;3.50;2.90;;;3.20;99.90;;;;;;5015392;28;20215;-66
2024/01/08 04:00:11;;;;;;;3.50;2.90;;;3.20;99.90;;;;;;5009670;28;20189;-67
2024/01/08 04:02:40;;;;;;;4.23;2.90;;;3.20;99.90;;;;;;5016004;28;20195;-67
2024/01/08 04:05:08;;;;;;;3.70;3.13;;;3.10;99.90;;;;;;5015564;28;20722;-67
2024/01/08 04:07:34;;;;;;;3.50;2.63;;;3.20;99.90;;;;;;5010572;28;20537;-66
2024/01/08 04:09:59;;;;;;;4.10;3.10;;;3.20;99.90;;;;;;5013988;28;20443;-66
2024/01/08 04:12:25;;;;;;;3.97;2.77;;;3.10;99.90;;;;;;5014161;28;20239;-67
2024/01/08 04:14:50;;;;;;;3.70;2.87;;;3.10;99.90;;;;;;5014599;28;20252;-67
2024/01/08 04:17:16;;;;;;;4.33;2.97;;;3.10;99.90;;;;;;5015922;28;20181;-67
2024/01/08 04:19:42;;;;;;;4.20;3.20;;;3.10;99.90;;;;;;5009986;28;20181;-66
2024/01/08 04:22:07;;;;;;;3.13;2.60;;;3.20;99.90;;;;;;5015354;28;20611;-67
2024/01/08 04:24:33;;;;;;;4.13;2.70;;;3.20;99.90;;;;;;5012653;28;20687;-67
2024/01/08 04:26:58;;;;;;;4.80;3.80;;;3.10;99.90;;;;;;5015961;28;20181;-66
2024/01/08 04:29:24;;;;;;;4.47;3.10;;;3.10;99.90;;;;;;5015856;28;20195;-67
2024/01/08 04:31:49;;;;;;;3.43;3.13;;;3.20;99.90;;;;;;5016516;28;20557;-66
2024/01/08 04:34:15;;;;;;;4.07;3.30;;;3.10;99.90;;;;;;5015544;28;20684;-66
2024/01/08 04:36:45;;;;;;;3.27;2.73;;;3.10;99.90;;;;;;5010412;28;20189;-66
2024/01/08 04:39:10;;;;;;;4.93;3.47;;;3.10;99.90;;;;;;5013515;28;20238;-66
2024/01/08 04:41:36;;;;;;;3.60;2.77;;;3.10;99.90;;;;;;5014695;28;20883;-66
2024/01/08 04:44:01;;;;;;;4.60;2.87;;;3.10;99.90;;;;;;5011411;28;20578;-68
2024/01/08 04:46:27;;;;;;;3.50;2.80;;;3.10;99.90;;;;;;5017359;28;20186;-68
2024/01/08 04:48:52;;;;;;;4.00;3.10;;;3.10;99.90;;;;;;5007549;28;20200;-67
2024/01/08 04:51:25;;;;;;;3.57;2.70;;;3.10;99.90;;;;;;5011660;28;20196;-68
2024/01/08 04:53:52;;;;;;;3.50;2.90;;;3.10;99.90;;;;;;5010172;28;20636;-68
2024/01/08 04:56:25;;;;;;;5.03;3.20;;;3.10;99.90;;;;;;5016362;28;20435;-68
2024/01/08 04:58:53;;;;;;;3.93;3.10;;;3.10;99.90;;;;;;5008801;28;20489;-68
2024/01/08 05:01:19;;;;;;;3.50;2.80;;;3.10;99.90;;;;;;5017163;28;20471;-68
2024/01/08 05:03:45;;;;;;;3.03;2.73;;;3.20;99.90;;;;;;5013518;28;20476;-67
2024/01/08 05:06:12;;;;;;;3.83;3.27;;;3.10;99.90;;;;;;5015550;28;20203;-67
2024/01/08 05:08:40;;;;;;;3.70;2.90;;;3.10;99.90;;;;;;5009850;28;20559;-68
2024/01/08 05:11:06;;;;;;;4.10;3.30;;;3.10;99.90;;;;;;5012867;28;20467;-68
2024/01/08 05:13:35;;;;;;;5.47;3.13;;;3.10;99.90;;;;;;5009731;28;20491;-68
2024/01/08 05:16:01;;;;;;;3.80;3.20;;;3.10;99.90;;;;;;5007128;28;20208;-68
2024/01/08 05:18:28;;;;;;;3.67;2.87;;;3.10;99.90;;;;;;5009117;28;20470;-68
2024/01/08 05:20:54;;;;;;;4.03;3.17;;;3.10;99.90;;;;;;5011605;28;20466;-68
2024/01/08 05:23:20;;;;;;;3.73;2.97;;;3.00;99.90;;;;;;5014424;28;20483;-68
2024/01/08 05:25:46;;;;;;;4.73;3.00;;;3.00;99.90;;;;;;5008712;28;20423;-67
2024/01/08 05:28:11;;;;;;;4.33;3.10;;;3.00;99.90;;;;;;5010662;28;20420;-67
2024/01/08 05:30:37;;;;;;;3.27;2.83;;;3.00;99.90;;;;;;5007135;28;20943;-67
2024/01/08 05:33:03;;;;;;;3.70;3.00;;;3.00;99.90;;;;;;5007623;28;20192;-68
2024/01/08 05:35:29;;;;;;;3.40;2.90;;;2.90;99.90;;;;;;5010041;28;20185;-67
2024/01/08 05:37:56;;;;;;;9.27;3.53;;;2.90;99.90;;;;;;5011467;28;20482;-68
2024/01/08 05:40:22;;;;;;;3.53;2.97;;;2.90;99.90;;;;;;5012929;28;20192;-68
2024/01/08 05:42:47;;;;;;;3.93;3.00;;;2.90;99.90;;;;;;5011519;28;20578;-68
2024/01/08 05:45:13;;;;;;;8.80;3.63;;;3.00;99.90;;;;;;5014512;28;20364;-68
2024/01/08 05:47:39;;;;;;;4.97;3.70;;;2.90;99.90;;;;;;5012369;28;20185;-68
2024/01/08 05:50:05;;;;;;;4.10;3.63;;;3.00;99.90;;;;;;5008202;28;20193;-68
2024/01/08 05:52:31;;;;;;;3.90;3.00;;;3.00;99.90;;;;;;5006890;28;20283;-68
2024/01/08 05:54:57;;;;;;;4.73;3.30;;;3.00;99.90;;;;;;5013347;28;20994;-68
2024/01/08 05:57:22;;;;;;;3.43;2.93;;;3.00;99.90;;;;;;5012340;28;20440;-68
2024/01/08 05:59:48;;;;;;;4.37;3.73;;;3.00;99.90;;;;;;5010141;28;20185;-68
2024/01/08 06:02:14;;;;;;;3.97;3.07;;;3.00;99.90;;;;;;5013153;28;20231;-68
2024/01/08 06:04:40;;;;;;;3.30;2.90;;;2.90;99.90;;;;;;5013575;28;20474;-67
2024/01/08 06:07:05;;;;;;;4.40;3.80;;;3.00;99.90;;;;;;5012417;28;20278;-67
2024/01/08 06:09:31;;;;;;;5.67;3.50;;;3.00;99.90;;;;;;5015633;28;20191;-68
2024/01/08 06:11:58;;;;;;;4.63;3.67;;;2.90;99.90;;;;;;5015980;28;20189;-68
2024/01/08 06:14:25;;;;;;;4.87;3.70;;;2.90;99.90;;;;;;5014884;28;20204;-68
2024/01/08 06:16:50;;;;;;;4.10;2.93;;;2.90;99.90;;;;;;5013291;28;20426;-68
2024/01/08 06:19:16;;;;;;;5.80;3.60;;;3.00;99.90;;;;;;5013419;28;20476;-66
2024/01/08 06:21:41;;;;;;;4.30;3.30;;;3.00;99.90;;;;;;5011814;28;20274;-66
2024/01/08 06:24:07;;;;;;;4.13;3.60;;;2.90;99.90;;;;;;5015410;28;20212;-66
2024/01/08 06:26:33;;;;;;;4.43;3.60;;;2.90;99.90;;;;;;5015176;28;20182;-66
2024/01/08 06:29:00;;;;;;;4.73;3.53;;;3.00;99.90;;;;;;5020941;28;20180;-67
2024/01/08 06:31:26;;;;;;;5.13;3.67;;;3.00;99.90;;;;;;5016616;28;20525;-66
2024/01/08 06:33:52;;;;;;;4.53;3.53;;;3.00;99.90;;;;;;5020779;28;20917;-66
2024/01/08 06:36:18;;;;;;;4.07;3.20;;;2.90;99.90;;;;;;5021546;28;20238;-67
2024/01/08 06:38:43;;;;;;;4.47;3.30;;;2.90;99.90;;;;;;5012316;28;20468;-66
2024/01/08 06:41:10;;;;;;;4.00;3.33;;;2.90;99.90;;;;;;5015295;28;20185;-67
2024/01/08 06:43:35;;;;;;;4.70;3.70;;;2.90;99.90;;;;;;5014312;28;20784;-67
2024/01/08 06:46:01;;;;;;;4.00;3.33;;;2.90;99.90;;;;;;5017254;28;20520;-67
2024/01/08 06:48:27;;;;;;;4.43;3.67;;;2.80;99.90;;;;;;5019933;28;20191;-67
2024/01/08 06:50:52;;;;;;;4.20;3.77;;;2.90;99.90;;;;;;5017661;28;20211;-67
2024/01/08 06:53:18;;;;;;;4.63;4.00;;;2.90;99.90;;;;;;5021770;28;20456;-67
2024/01/08 06:55:43;;;;;;;4.60;3.83;;;2.90;99.90;;;;;;5009244;28;20235;-68
2024/01/08 06:58:09;;;;;;;6.00;4.30;;;3.00;99.90;;;;;;5010926;28;20293;-67
2024/01/08 07:00:35;;;;;;;6.17;3.90;;;2.90;99.90;;;;;;5008555;28;20208;-67
2024/01/08 07:03:00;;;;;;;5.67;3.60;;;2.90;99.90;;;;;;5010038;28;20225;-67
2024/01/08 07:05:26;;;;;;;4.30;3.90;;;2.90;99.90;;;;;;5016473;28;20853;-67
2024/01/08 07:07:53;;;;;;;4.80;4.10;;;2.90;99.90;;;;;;5013217;28;20201;-68
2024/01/08 07:10:19;;;;;;;5.43;3.73;;;3.00;99.90;;;;;;5009983;28;20332;-68
2024/01/08 07:12:45;;;;;;;5.10;4.40;;;3.00;99.90;;;;;;5005966;28;21040;-68
2024/01/08 07:15:48;;;;;;;4.53;4.03;;;3.00;99.90;;;;;;5028700;28;21456;-66
2024/01/08 07:18:15;;;;;;;5.57;4.70;;;3.00;99.90;;;;;;5016336;28;20525;-66
2024/01/08 07:20:41;;;;;;;7.57;4.80;;;3.00;99.90;;;;;;5012541;28;20427;-66
2024/01/08 07:23:08;;;;;;;6.50;4.63;;;3.00;99.90;;;;;;5014482;28;20498;-65
2024/01/08 07:25:41;;;;;;;6.03;4.70;;;3.00;99.90;;;;;;5014293;28;20506;-65
2024/01/08 07:28:09;;;;;;;5.53;4.20;;;3.00;99.90;;;;;;5006897;28;20925;-67
2024/01/08 07:30:36;;;;;;;5.23;4.60;;;3.00;99.90;;;;;;5007898;28;20427;-67
2024/01/08 07:33:02;;;;;;;6.27;4.23;;;3.00;99.90;;;;;;5018721;28;20462;-66
2024/01/08 07:35:28;;;;;;;7.20;5.33;;;3.00;99.90;;;;;;5010861;28;21169;-67
2024/01/08 07:37:57;;;;;;;5.23;4.80;;;3.00;99.90;;;;;;5015433;28;21147;-68
2024/01/08 07:40:26;;;;;;;5.00;4.30;;;3.00;99.90;;;;;;5016812;28;20818;-68
2024/01/08 07:42:53;;;;;;;6.93;4.43;;;3.00;99.90;;;;;;5009205;28;20651;-67
2024/01/08 07:45:19;;;;;;;5.40;4.53;;;3.00;99.90;;;;;;5018845;28;20891;-67
2024/01/08 07:47:45;;;;;;;5.53;4.80;;;3.10;99.90;;;;;;5015904;28;20427;-67
2024/01/08 07:50:11;;;;;;;6.50;4.57;;;3.10;99.90;;;;;;5022237;28;20220;-68
2024/01/08 07:52:36;;;;;;;6.43;4.70;;;3.10;99.90;;;;;;5017725;28;20191;-67
2024/01/08 07:55:03;;;;;;;6.20;4.83;;;3.20;99.90;;;;;;5014862;28;20586;-67
2024/01/08 07:57:29;;;;;;;5.13;4.63;;;3.20;99.90;;;;;;5014236;28;20185;-67
2024/01/08 07:59:56;;;;;;;6.00;5.40;;;3.20;99.90;;;;;;5011145;28;20446;-67
2024/01/08 08:02:21;;;;;;;5.20;4.00;;;3.20;99.90;;;;;;5012994;28;20521;-68
2024/01/08 08:04:47;;;;;;;4.73;4.23;;;3.20;99.90;;;;;;5009950;28;20443;-67
2024/01/08 08:07:12;;;;;;;5.60;4.40;;;3.20;99.90;;;;;;5015142;28;20208;-68
2024/01/08 08:09:38;;;;;;;5.03;4.23;;;3.20;99.90;;;;;;5011073;28;20276;-69
2024/01/08 08:12:03;;;;;;;7.00;4.40;;;3.20;99.90;;;;;;5011297;28;20189;-67
2024/01/08 08:14:29;;;;;;;5.20;3.67;;;3.20;99.90;;;;;;5013885;28;20565;-67
2024/01/08 08:16:55;;;;;;;5.43;4.90;;;3.20;99.90;;;;;;5015098;28;20178;-67
2024/01/08 08:19:21;;;;;;;4.90;4.37;;;3.20;99.90;;;;;;5010271;28;20220;-67
2024/01/08 08:21:46;;;;;;;5.10;4.43;;;3.20;99.90;;;;;;5009846;28;20440;-67
2024/01/08 08:24:12;;;;;;;4.97;4.40;;;3.20;99.90;;;;;;5011318;28;20668;-67
2024/01/08 08:26:38;;;;;;;6.33;4.20;;;3.20;99.90;;;;;;5008818;28;20189;-67
2024/01/08 08:29:04;;;;;;;6.20;5.30;;;3.20;99.90;;;;;;5009158;28;20189;-67
2024/01/08 08:31:29;;;;;;;5.40;4.60;;;3.20;99.90;;;;;;5015046;28;20438;-67
2024/01/08 08:33:55;;;;;;;4.90;4.40;;;3.20;99.90;;;;;;5012816;28;20259;-67
2024/01/08 08:36:21;;;;;;;5.73;4.60;;;3.20;99.90;;;;;;5012757;28;20844;-67
2024/01/08 08:38:46;;;;;;;9.40;5.50;;;3.10;99.90;;;;;;5008017;28;21019;-67
2024/01/08 08:41:12;;;;;;;9.33;5.90;;;3.10;99.90;;;;;;5013833;28;20196;-67
2024/01/08 08:43:37;;;;;;;5.93;5.10;;;3.10;99.90;;;;;;5011456;28;20215;-67
2024/01/08 08:46:03;;;;;;;7.30;5.30;;;3.10;99.90;;;;;;5013596;28;20184;-67
2024/01/08 08:48:29;;;;;;;6.30;5.30;;;3.10;99.90;;;;;;5010000;28;20766;-67
2024/01/08 08:50:54;;;;;;;7.20;5.40;;;3.10;99.90;;;;;;5006094;28;20188;-67
2024/01/08 08:53:20;;;;;;;6.40;4.70;;;3.10;99.90;;;;;;5006779;28;20671;-67
2024/01/08 08:55:45;;;;;;;6.20;5.10;;;3.10;99.90;;;;;;5010147;28;20189;-67
2024/01/08 08:58:11;;;;;;;5.33;4.60;;;3.10;99.90;;;;;;5012285;28;20760;-66
2024/01/08 09:00:37;;;;;;;5.50;4.60;;;3.10;99.90;;;;;;5012983;28;20597;-70
2024/01/08 09:03:05;;;;;;;6.77;5.27;;;3.10;99.90;;;;;;5012729;28;20184;-67
2024/01/08 09:05:32;;;;;;;7.10;5.43;;;3.10;99.90;;;;;;5016606;28;20187;-68
2024/01/08 09:07:57;;;;;;;6.60;5.53;;;3.10;99.90;;;;;;5015290;28;20838;-68
2024/01/08 09:10:23;;;;;;;5.30;4.37;;;3.10;99.90;;;;;;5013208;28;20493;-68
2024/01/08 09:12:48;;;;;;;6.13;4.67;;;3.20;99.90;;;;;;5015251;28;20235;-68
2024/01/08 09:15:14;;;;;;;6.50;5.27;;;3.20;99.90;;;;;;5013581;28;20720;-68
2024/01/08 09:17:40;;;;;;;5.10;4.37;;;3.20;99.90;;;;;;5014630;28;20184;-67
2024/01/08 09:20:09;;;;;;;6.80;4.70;;;3.20;99.90;;;;;;5008815;28;20193;-68
2024/01/08 09:22:34;;;;;;;6.10;4.27;;;3.20;99.90;;;;;;5014953;28;20415;-68
2024/01/08 09:25:00;;;;;;;5.33;4.50;;;3.20;99.90;;;;;;5013627;28;20817;-68
2024/01/08 09:27:27;;;;;;;9.73;6.60;;;3.20;99.90;;;;;;5011985;28;20220;-68
2024/01/08 09:29:52;;;;;;;6.70;4.73;;;3.20;99.90;;;;;;5008795;28;20184;-68
2024/01/08 09:32:18;;;;;;;6.77;5.53;;;3.20;99.90;;;;;;5017672;28;20989;-68
2024/01/08 09:34:43;;;;;;;8.43;6.20;;;3.20;99.90;;;;;;5012549;28;20261;-68
2024/01/08 09:37:09;;;;;;;9.60;5.80;;;3.10;99.90;;;;;;5013029;28;20312;-68
2024/01/08 09:39:35;;;;;;;6.53;5.10;;;3.20;99.90;;;;;;5014149;28;20220;-68
2024/01/08 09:42:04;;;;;;;7.33;5.30;;;3.20;99.90;;;;;;5014035;28;20203;-68
2024/01/08 09:44:31;;;;;;;8.20;5.70;;;3.20;99.90;;;;;;5015937;28;20481;-68
2024/01/08 09:46:59;;;;;;;7.00;5.37;;;3.20;99.90;;;;;;5017204;28;20439;-68
2024/01/08 09:49:26;;;;;;;8.80;5.50;;;3.20;99.90;;;;;;5015481;28;20444;-68
2024/01/08 09:51:53;;;;;;;6.70;5.97;;;3.20;99.90;;;;;;5015827;28;20452;-69
2024/01/08 09:54:21;;;;;;;7.40;6.00;;;3.30;99.90;;;;;;5016208;28;20973;-68
2024/01/08 09:56:50;;;;;;;5.57;4.97;;;3.20;99.90;;;;;;5018792;28;20477;-68
2024/01/08 09:59:16;;;;;;;10.20;5.63;;;3.30;99.90;;;;;;5011298;28;20530;-68
2024/01/08 10:01:43;;;;;;;6.50;5.73;;;3.30;99.90;;;;;;5017491;28;20434;-68
2024/01/08 10:04:09;;;;;;;7.60;6.27;;;3.30;99.90;;;;;;5025689;28;20450;-66
2024/01/08 10:06:34;;;;;;;7.10;5.80;;;3.30;99.90;;;;;;5026729;28;20500;-66
2024/01/08 10:09:00;;;;;;;7.20;5.70;;;3.30;99.90;;;;;;5013091;28;20479;-66
2024/01/08 10:11:26;;;;;;;7.37;5.57;;;3.30;99.90;;;;;;5018579;28;20190;-66
2024/01/08 10:13:52;;;;;;;7.50;6.70;;;3.30;99.90;;;;;;5015265;28;20220;-66
2024/01/08 10:16:18;;;;;;;7.93;5.70;;;3.30;99.90;;;;;;5011163;28;20443;-66
2024/01/08 10:18:47;;;;;;;10.50;6.20;;;3.30;99.90;;;;;;5017752;28;21042;-66
2024/01/08 10:21:14;;;;;;;7.23;5.60;;;3.20;99.90;;;;;;5023111;28;20181;-65
2024/01/08 10:23:40;;;;;;;7.40;5.43;;;3.30;99.90;;;;;;5023689;28;20954;-66
2024/01/08 10:26:09;;;;;;;7.77;5.53;;;3.30;99.90;;;;;;5015130;28;20431;-66
2024/01/08 10:28:36;;;;;;;7.80;5.63;;;3.30;99.90;;;;;;5015065;28;20473;-66
2024/01/08 10:31:06;;;;;;;7.83;5.33;;;3.30;99.90;;;;;;5018660;28;20423;-66
2024/01/08 10:33:33;;;;;;;7.10;6.30;;;3.30;99.90;;;;;;5020232;28;20925;-66
2024/01/08 10:36:07;;;;;;;7.37;5.73;;;3.20;99.90;;;;;;5012202;28;20443;-66
2024/01/08 10:38:33;;;;;;;8.50;5.60;;;3.20;99.90;;;;;;5019440;28;20872;-66
2024/01/08 10:41:01;;;;;;;7.40;6.37;;;3.10;99.90;;;;;;5014036;28;20444;-66
2024/01/08 10:43:28;;;;;;;9.50;5.33;;;3.10;99.90;;;;;;5016219;28;20445;-66
2024/01/08 10:45:59;;;;;;;8.07;5.10;;;3.10;99.90;;;;;;5017467;28;20435;-66
2024/01/08 10:48:43;;;;;;;8.90;5.90;;;3.20;99.90;;;;;;5013778;28;20427;-66
2024/01/08 10:51:09;;;;;;;8.33;6.00;;;3.20;99.90;;;;;;5012862;28;20572;-66
2024/01/08 10:53:44;;;;;;;6.17;5.27;;;3.20;99.90;;;;;;5015086;28;20464;-66
2024/01/08 10:56:13;;;;;;;7.13;5.43;;;3.30;99.90;;;;;;5014331;28;21012;-66
2024/01/08 10:58:46;;;;;;;5.60;4.80;;;3.30;99.90;;;;;;5016786;28;20468;-67
2024/01/08 11:01:12;;;;;;;7.73;5.83;;;3.30;99.90;;;;;;5017965;28;21186;-67
2024/01/08 11:03:38;;;;;;;7.23;5.00;;;3.40;99.90;;;;;;5016245;28;20451;-67
2024/01/08 11:06:06;;;;;;;7.53;4.87;;;3.40;99.90;;;;;;5014478;28;20425;-67
2024/01/08 11:08:33;;;;;;;6.13;5.40;;;3.40;99.90;;;;;;5009258;28;20451;-67
2024/01/08 11:11:06;;;;;;;8.07;5.60;;;3.40;99.90;;;;;;5016538;28;21160;-66
2024/01/08 11:13:32;;;;;;;9.23;5.50;;;3.50;99.90;;;;;;5018748;28;20442;-67
2024/01/08 11:16:04;;;;;;;7.37;4.60;;;3.50;99.90;;;;;;5012669;28;20909;-67
2024/01/08 11:18:29;;;;;;;6.97;5.60;;;3.50;99.90;;;;;;5005463;28;21605;-66
2024/01/08 11:20:56;;;;;;;7.90;4.47;;;3.50;99.90;;;;;;5009390;28;20458;-67
2024/01/08 11:23:31;;;;;;;6.40;5.00;;;3.50;99.90;;;;;;5011882;28;20208;-67
2024/01/08 11:25:57;;;;;;;7.27;5.50;;;3.60;99.90;;;;;;5012204;28;20454;-67
2024/01/08 11:28:23;;;;;;;8.97;4.87;;;3.60;99.90;;;;;;5017805;28;20441;-67
2024/01/08 11:31:17;;;;;;;6.50;5.03;;;3.50;99.90;;;;;;5013793;28;20539;-66
2024/01/08 11:33:58;;;;;;;11.10;5.80;;;3.50;99.90;;;;;;5016336;28;20440;-66
2024/01/08 11:36:45;;;;;;;5.13;4.23;;;3.50;99.90;;;;;;5017946;28;20427;-67
2024/01/08 11:39:19;;;;;;;5.23;4.20;;;3.50;99.90;;;;;;5008368;28;20540;-67
2024/01/08 11:41:45;;;;;;;6.60;4.47;;;3.50;99.90;;;;;;5015161;28;20442;-67
2024/01/08 11:44:11;;;;;;;6.60;5.07;;;3.50;99.90;;;;;;5008115;28;20537;-66
2024/01/08 11:46:37;;;;;;;7.30;5.37;;;3.50;99.90;;;;;;5022212;28;20969;-66
2024/01/08 11:49:05;;;;;;;5.63;4.60;;;3.40;99.90;;;;;;5015417;28;20432;-67
2024/01/08 11:51:32;;;;;;;8.20;5.10;;;3.40;99.90;;;;;;5022964;28;20188;-66
2024/01/08 11:54:03;;;;;;;7.30;4.93;;;3.40;99.90;;;;;;5023007;28;20446;-66
2024/01/08 11:56:29;;;;;;;5.40;4.53;;;3.40;99.90;;;;;;5021727;28;20452;-66
2024/01/08 11:58:54;;;;;;;4.83;4.10;;;3.40;99.90;;;;;;5020584;28;20573;-66
2024/01/08 12:01:20;;;;;;;7.23;4.87;;;3.30;99.90;;;;;;5024812;28;20215;-67
2024/01/08 12:03:46;;;;;;;7.80;5.37;;;3.30;99.90;;;;;;5027177;28;20199;-67
2024/01/08 12:06:12;;;;;;;6.53;4.40;;;3.30;99.90;;;;;;5023636;28;20927;-67
2024/01/08 12:08:38;;;;;;;5.90;4.60;;;3.30;99.90;;;;;;5016937;28;20204;-66
2024/01/08 12:11:05;;;;;;;6.63;4.33;;;3.30;99.90;;;;;;5020852;28;20427;-67
2024/01/08 12:13:30;;;;;;;6.43;5.07;;;3.30;99.90;;;;;;5015885;28;20550;-67
2024/01/08 12:15:57;;;;;;;7.20;5.00;;;3.30;99.90;;;;;;5022436;28;20506;-67
2024/01/08 12:18:23;;;;;;;5.60;3.93;;;3.30;99.90;;;;;;5018371;28;20704;-67
2024/01/08 12:20:52;;;;;;;7.00;4.50;;;3.30;99.90;;;;;;5021197;28;20437;-67
2024/01/08 12:23:20;;;;;;;6.50;4.90;;;3.20;99.90;;;;;;5020381;28;20482;-66
2024/01/08 12:25:49;;;;;;;7.00;4.80;;;3.20;99.90;;;;;;5018837;28;20447;-68
2024/01/08 12:28:15;;;;;;;7.27;4.90;;;3.20;99.90;;;;;;5015987;28;20445;-67
2024/01/08 12:30:40;;;;;;;8.30;5.60;;;3.20;99.90;;;;;;5021958;28;20426;-67
2024/01/08 12:33:07;;;;;;;7.03;4.40;;;3.20;99.90;;;;;;5017662;28;20248;-68
2024/01/08 12:35:36;;;;;;;11.83;4.53;;;3.20;99.90;;;;;;5018907;28;20231;-66
2024/01/08 12:38:03;;;;;;;6.30;4.57;;;3.10;99.90;;;;;;5016837;28;20543;-67
2024/01/08 12:40:28;;;;;;;5.97;4.70;;;3.20;99.90;;;;;;5023138;28;20860;-68
2024/01/08 12:42:54;;;;;;;7.93;5.67;;;3.20;99.90;;;;;;5026265;28;20447;-68
2024/01/08 12:45:20;;;;;;;6.53;4.80;;;3.00;99.90;;;;;;5016683;28;20181;-67
2024/01/08 12:47:46;;;;;;;5.87;4.70;;;3.00;99.90;;;;;;5018065;28;20446;-67
2024/01/08 12:50:12;;;;;;;6.30;4.93;;;3.00;99.90;;;;;;5017420;28;20181;-67
2024/01/08 12:52:37;;;;;;;8.20;5.30;;;3.00;99.90;;;;;;5016338;28;20423;-67
2024/01/08 12:55:03;;;;;;;6.43;4.70;;;3.00;99.90;;;;;;5007712;28;20200;-67